Wood River Junction, Rhode Island
Current Conditions -  °F | °C
As of 8:53 AM on Monday 24 Nov 2014 (Local Time) from KWST Reporting Station
Light Rain Light Rain  
Wind Chill: 59°   Ceiling: 300
Heat Index: 59°   Visibility: 2.5mi
Dew Point: 58°   Wind: 20mph
Humidity: 96%   Direction: 170°S
Pressure: 29.76"   Gusts: 31mph
Location:  41.44°N, 71.69°W
Report Text: KWST 241353Z AUTO 17017G27KT 2 1/2SM -RA BR OVC003 15/14 A2976 RMK AO2 PK WND 16031/1338 SLP078 P0015 T01500144
Loading
Personal Weather Stations






























Interactive Weather Map New forecast layout! Learn more

10-Day Weather Forecast

Advertisements
Track Severe Weather on mobile